General Mariano Escobedo International Airport
MMMY : now visible

Airfield :











YOU CAN JOIN US ON...

 
LOGIN :

Register | Disclaimer

   EN    FR    IT 

 









Legend :    VFR   Marginal VFR   IFR   Intensive IFR   Very Intensive IFR
Visi :
Ceiling :
>= 8 km
>= 3000ft
5 to 8 km
1000 to 3000 ft
1500m to 5 km
500 to 1000 ft
800 to 1500m
200 to 500 ft
< 800m
< 200 ft
Symbols :   Thunderstorms  Fog  Heavy snow  Heavy precipitations  Wind > 20 kt







- Airport Elevation : 1278 ft
- IATA code : MTY


MMMY - General Mariano Escobedo International

CURRENT METAR :
  • 210140Z 09009KT 10SM SKC 29/21 A2988 RMK ISOL CU

EXPIRED METARs :
  • 210041Z 12007KT 10SM FEW200 29/21 A2985 RMK 8/008
  • 202353Z 12011KT 7SM FEW020 31/21 A2984 RMK SLP/// 5//// 9// 8/500

TAF TAF MMMY
Valid from the 21 at 00:00 until the 22 at 06:00 UTC


202320Z 2100/2206 12010KT 5SM HZ SCT020 TX33/2121Z TN25/2110Z
BECMG 2102/2103 10005KT
FM211000 00000KT 3SM BR HZ BKN020
FM211600 10008KT P6SM SCT025
BECMG 2120/2121 10012KT BKN025
PROB40 2122/2203 5SM -TSRA BKN020CB BKN080
No reported NOTAMs for that airfield.



MET'MAP, your aeronautical weather chart ! - Copyright ORBIFLY December 2007 - Disclaimer

ORBIFLY MET'MAP TEAM :

Programming & Development : Alexandra Zaïnal
Concept & Development : Baudouin d'Aumeries
Co-Development & Prog : Marc-Olivier Méhu
Technical & hardware support : Manuel Goepfert

Contact : metmap@orbifly.com




SOURCES & CREDITS :

   NOAA       Earth
Advisory